Terminal Aerodrome Forecast
Issued by NWS Greer, SC

Home | Current Version | Previous Version | Text Only | Print | Product List | Glossary On
Versions: 1 2 3 4 5 6 7 8 9 10 11 12 13 14 15 16 17 18 19 20 21 22 23 24 25 26 27 28 29 30 31 32 33 34 35 36 37 38 39 40 41 42 43 44 45 46 47 48 49 50
000
FTUS42 KGSP 282048 AAA
TAFCLT
TAF AMD
KCLT 282048Z 2821/0118 05008KT P6SM SCT110 BKN200
     FM010300 05007KT P6SM BKN025
     FM010700 04006KT P6SM OVC020
     FM011000 03007KT P6SM OVC008
     FM011200 03007KT P6SM -FZRA OVC008
     FM011400 03006KT P6SM -RA OVC006=

USA.gov is the U.S. government's official web portal to all federal, state and local government web resources and services.